sensor_id;sensor_type;location;lat;lon;timestamp;P1;durP1;ratioP1;P2;durP2;ratioP2
40997;SDS011;26740;45.944;12.480;2022-07-22T00:01:13;12.88;;;6.45;;
40997;SDS011;26740;45.944;12.480;2022-07-22T00:03:39;13.50;;;6.68;;
40997;SDS011;26740;45.944;12.480;2022-07-22T00:06:05;10.18;;;7.03;;
40997;SDS011;26740;45.944;12.480;2022-07-22T00:08:31;12.07;;;6.70;;
40997;SDS011;26740;45.944;12.480;2022-07-22T00:10:56;9.90;;;6.85;;
40997;SDS011;26740;45.944;12.480;2022-07-22T00:13:22;8.15;;;6.40;;
40997;SDS011;26740;45.944;12.480;2022-07-22T00:15:48;11.88;;;6.90;;
40997;SDS011;26740;45.944;12.480;2022-07-22T00:18:14;10.55;;;6.47;;
40997;SDS011;26740;45.944;12.480;2022-07-22T00:20:40;12.00;;;6.32;;
40997;SDS011;26740;45.944;12.480;2022-07-22T00:23:07;12.40;;;7.05;;
40997;SDS011;26740;45.944;12.480;2022-07-22T00:25:32;9.27;;;7.57;;
40997;SDS011;26740;45.944;12.480;2022-07-22T00:27:58;10.73;;;6.72;;
40997;SDS011;26740;45.944;12.480;2022-07-22T00:30:23;12.60;;;7.00;;
40997;SDS011;26740;45.944;12.480;2022-07-22T00:32:49;11.63;;;7.63;;
40997;SDS011;26740;45.944;12.480;2022-07-22T00:35:15;12.27;;;6.07;;
40997;SDS011;26740;45.944;12.480;2022-07-22T00:37:41;10.50;;;6.60;;
40997;SDS011;26740;45.944;12.480;2022-07-22T00:40:07;14.50;;;6.28;;
40997;SDS011;26740;45.944;12.480;2022-07-22T00:42:33;13.70;;;6.47;;
40997;SDS011;26740;45.944;12.480;2022-07-22T00:45:00;7.72;;;5.70;;
40997;SDS011;26740;45.944;12.480;2022-07-22T00:47:25;9.20;;;6.43;;
40997;SDS011;26740;45.944;12.480;2022-07-22T00:49:51;11.95;;;6.72;;
40997;SDS011;26740;45.944;12.480;2022-07-22T00:52:18;12.27;;;6.40;;
40997;SDS011;26740;45.944;12.480;2022-07-22T00:54:45;12.55;;;7.30;;
40997;SDS011;26740;45.944;12.480;2022-07-22T00:57:11;9.43;;;6.28;;
40997;SDS011;26740;45.944;12.480;2022-07-22T00:59:36;9.18;;;5.90;;
40997;SDS011;26740;45.944;12.480;2022-07-22T01:02:02;10.68;;;6.25;;
40997;SDS011;26740;45.944;12.480;2022-07-22T01:04:28;7.72;;;6.70;;
40997;SDS011;26740;45.944;12.480;2022-07-22T01:06:54;7.82;;;7.05;;
40997;SDS011;26740;45.944;12.480;2022-07-22T01:09:20;11.20;;;7.28;;
40997;SDS011;26740;45.944;12.480;2022-07-22T01:11:46;9.82;;;6.32;;
40997;SDS011;26740;45.944;12.480;2022-07-22T01:14:12;11.95;;;6.75;;
40997;SDS011;26740;45.944;12.480;2022-07-22T01:16:37;7.00;;;6.22;;
40997;SDS011;26740;45.944;12.480;2022-07-22T01:19:03;10.10;;;6.75;;
40997;SDS011;26740;45.944;12.480;2022-07-22T01:21:29;11.07;;;6.82;;
40997;SDS011;26740;45.944;12.480;2022-07-22T01:23:55;11.95;;;6.65;;
40997;SDS011;26740;45.944;12.480;2022-07-22T01:26:20;10.25;;;6.47;;
40997;SDS011;26740;45.944;12.480;2022-07-22T01:28:46;14.23;;;6.95;;
40997;SDS011;26740;45.944;12.480;2022-07-22T01:31:12;13.43;;;6.65;;
40997;SDS011;26740;45.944;12.480;2022-07-22T01:33:37;9.55;;;7.00;;
40997;SDS011;26740;45.944;12.480;2022-07-22T01:36:03;10.80;;;6.35;;
40997;SDS011;26740;45.944;12.480;2022-07-22T01:38:30;13.38;;;6.97;;
40997;SDS011;26740;45.944;12.480;2022-07-22T01:40:56;9.13;;;6.60;;
40997;SDS011;26740;45.944;12.480;2022-07-22T01:43:21;8.63;;;6.10;;
40997;SDS011;26740;45.944;12.480;2022-07-22T01:45:48;10.32;;;6.30;;
40997;SDS011;26740;45.944;12.480;2022-07-22T01:48:16;10.27;;;6.30;;
40997;SDS011;26740;45.944;12.480;2022-07-22T01:50:42;10.27;;;6.60;;
40997;SDS011;26740;45.944;12.480;2022-07-22T01:53:08;9.15;;;7.00;;
40997;SDS011;26740;45.944;12.480;2022-07-22T01:55:34;11.82;;;8.13;;
40997;SDS011;26740;45.944;12.480;2022-07-22T01:58:00;19.73;;;6.88;;
40997;SDS011;26740;45.944;12.480;2022-07-22T02:00:27;9.52;;;6.47;;
40997;SDS011;26740;45.944;12.480;2022-07-22T02:02:52;10.10;;;6.32;;
40997;SDS011;26740;45.944;12.480;2022-07-22T02:05:18;7.95;;;6.32;;
40997;SDS011;26740;45.944;12.480;2022-07-22T02:07:44;7.97;;;7.07;;
40997;SDS011;26740;45.944;12.480;2022-07-22T02:10:09;7.15;;;6.45;;
40997;SDS011;26740;45.944;12.480;2022-07-22T02:12:35;10.13;;;6.60;;
40997;SDS011;26740;45.944;12.480;2022-07-22T02:15:01;9.57;;;7.30;;
40997;SDS011;26740;45.944;12.480;2022-07-22T02:17:26;8.10;;;6.55;;
40997;SDS011;26740;45.944;12.480;2022-07-22T02:19:52;11.60;;;7.18;;
40997;SDS011;26740;45.944;12.480;2022-07-22T02:22:18;9.65;;;6.53;;
40997;SDS011;26740;45.944;12.480;2022-07-22T02:24:43;10.70;;;7.47;;
40997;SDS011;26740;45.944;12.480;2022-07-22T02:27:09;8.73;;;6.43;;
40997;SDS011;26740;45.944;12.480;2022-07-22T02:29:36;11.15;;;7.28;;
40997;SDS011;26740;45.944;12.480;2022-07-22T02:32:01;9.68;;;6.70;;
40997;SDS011;26740;45.944;12.480;2022-07-22T02:34:27;8.00;;;7.03;;
40997;SDS011;26740;45.944;12.480;2022-07-22T02:36:53;12.38;;;6.75;;
40997;SDS011;26740;45.944;12.480;2022-07-22T02:39:19;10.05;;;6.82;;
40997;SDS011;26740;45.944;12.480;2022-07-22T02:41:44;10.27;;;8.00;;
40997;SDS011;26740;45.944;12.480;2022-07-22T02:44:10;11.15;;;6.97;;
40997;SDS011;26740;45.944;12.480;2022-07-22T02:46:35;8.32;;;7.40;;
40997;SDS011;26740;45.944;12.480;2022-07-22T02:49:01;8.43;;;6.45;;
40997;SDS011;26740;45.944;12.480;2022-07-22T02:51:29;10.73;;;6.85;;
40997;SDS011;26740;45.944;12.480;2022-07-22T02:53:55;11.38;;;6.05;;
40997;SDS011;26740;45.944;12.480;2022-07-22T02:56:21;9.10;;;6.38;;
40997;SDS011;26740;45.944;12.480;2022-07-22T02:58:46;13.98;;;7.18;;
40997;SDS011;26740;45.944;12.480;2022-07-22T03:01:12;9.15;;;6.57;;
40997;SDS011;26740;45.944;12.480;2022-07-22T03:03:38;17.30;;;7.80;;
40997;SDS011;26740;45.944;12.480;2022-07-22T03:06:04;7.20;;;6.50;;
40997;SDS011;26740;45.944;12.480;2022-07-22T03:08:29;11.75;;;6.40;;
40997;SDS011;26740;45.944;12.480;2022-07-22T03:10:55;10.93;;;6.15;;
40997;SDS011;26740;45.944;12.480;2022-07-22T03:13:21;9.77;;;6.63;;
40997;SDS011;26740;45.944;12.480;2022-07-22T03:15:46;7.25;;;6.45;;
40997;SDS011;26740;45.944;12.480;2022-07-22T03:18:12;9.85;;;6.82;;
40997;SDS011;26740;45.944;12.480;2022-07-22T03:20:38;8.25;;;6.45;;
40997;SDS011;26740;45.944;12.480;2022-07-22T03:23:03;10.23;;;6.93;;
40997;SDS011;26740;45.944;12.480;2022-07-22T03:25:29;8.38;;;6.45;;
40997;SDS011;26740;45.944;12.480;2022-07-22T03:27:57;10.02;;;6.85;;
40997;SDS011;26740;45.944;12.480;2022-07-22T03:30:23;7.47;;;6.25;;
40997;SDS011;26740;45.944;12.480;2022-07-22T03:32:49;12.38;;;6.95;;
40997;SDS011;26740;45.944;12.480;2022-07-22T03:35:15;7.13;;;6.43;;
40997;SDS011;26740;45.944;12.480;2022-07-22T03:37:42;6.82;;;5.97;;
40997;SDS011;26740;45.944;12.480;2022-07-22T03:40:08;16.92;;;7.22;;
40997;SDS011;26740;45.944;12.480;2022-07-22T03:42:35;9.40;;;6.95;;
40997;SDS011;26740;45.944;12.480;2022-07-22T03:45:01;11.40;;;7.50;;
40997;SDS011;26740;45.944;12.480;2022-07-22T03:47:26;11.80;;;7.47;;
40997;SDS011;26740;45.944;12.480;2022-07-22T03:49:52;10.73;;;6.72;;
40997;SDS011;26740;45.944;12.480;2022-07-22T03:52:18;12.02;;;7.57;;
40997;SDS011;26740;45.944;12.480;2022-07-22T03:54:44;9.52;;;6.97;;
40997;SDS011;26740;45.944;12.480;2022-07-22T03:57:10;9.45;;;6.88;;
40997;SDS011;26740;45.944;12.480;2022-07-22T03:59:36;7.65;;;6.25;;
40997;SDS011;26740;45.944;12.480;2022-07-22T04:02:02;12.48;;;7.22;;
40997;SDS011;26740;45.944;12.480;2022-07-22T04:04:29;11.25;;;6.90;;
40997;SDS011;26740;45.944;12.480;2022-07-22T04:06:55;10.98;;;7.00;;
40997;SDS011;26740;45.944;12.480;2022-07-22T04:09:20;7.63;;;6.20;;
40997;SDS011;26740;45.944;12.480;2022-07-22T04:11:46;7.93;;;6.60;;
40997;SDS011;26740;45.944;12.480;2022-07-22T04:14:12;9.85;;;6.20;;
40997;SDS011;26740;45.944;12.480;2022-07-22T04:16:38;10.52;;;7.00;;
40997;SDS011;26740;45.944;12.480;2022-07-22T04:19:04;7.47;;;6.38;;
40997;SDS011;26740;45.944;12.480;2022-07-22T04:21:30;11.90;;;6.88;;
40997;SDS011;26740;45.944;12.480;2022-07-22T04:23:56;11.32;;;6.13;;
40997;SDS011;26740;45.944;12.480;2022-07-22T04:26:21;9.38;;;6.07;;
40997;SDS011;26740;45.944;12.480;2022-07-22T04:28:47;8.57;;;6.10;;
40997;SDS011;26740;45.944;12.480;2022-07-22T04:31:13;6.25;;;5.68;;
40997;SDS011;26740;45.944;12.480;2022-07-22T04:33:39;7.93;;;5.80;;
40997;SDS011;26740;45.944;12.480;2022-07-22T04:36:05;7.57;;;5.70;;
40997;SDS011;26740;45.944;12.480;2022-07-22T04:38:30;10.70;;;6.25;;
40997;SDS011;26740;45.944;12.480;2022-07-22T04:40:56;12.05;;;6.25;;
40997;SDS011;26740;45.944;12.480;2022-07-22T04:43:24;11.93;;;5.70;;
40997;SDS011;26740;45.944;12.480;2022-07-22T04:45:50;10.60;;;6.10;;
40997;SDS011;26740;45.944;12.480;2022-07-22T04:48:16;8.55;;;5.72;;
40997;SDS011;26740;45.944;12.480;2022-07-22T04:50:43;10.00;;;5.40;;
40997;SDS011;26740;45.944;12.480;2022-07-22T04:53:08;6.75;;;5.35;;
40997;SDS011;26740;45.944;12.480;2022-07-22T04:55:34;5.68;;;4.43;;
40997;SDS011;26740;45.944;12.480;2022-07-22T04:57:59;9.40;;;4.70;;
40997;SDS011;26740;45.944;12.480;2022-07-22T05:00:25;6.60;;;5.55;;
40997;SDS011;26740;45.944;12.480;2022-07-22T05:02:51;6.78;;;4.70;;
40997;SDS011;26740;45.944;12.480;2022-07-22T05:05:17;10.13;;;4.95;;
40997;SDS011;26740;45.944;12.480;2022-07-22T05:07:42;7.20;;;5.10;;
40997;SDS011;26740;45.944;12.480;2022-07-22T05:10:08;12.23;;;5.45;;
40997;SDS011;26740;45.944;12.480;2022-07-22T05:12:34;14.43;;;5.70;;
40997;SDS011;26740;45.944;12.480;2022-07-22T05:15:00;13.82;;;5.40;;
40997;SDS011;26740;45.944;12.480;2022-07-22T05:17:26;8.05;;;5.05;;
40997;SDS011;26740;45.944;12.480;2022-07-22T05:19:51;6.40;;;4.97;;
40997;SDS011;26740;45.944;12.480;2022-07-22T05:22:17;10.55;;;5.07;;
40997;SDS011;26740;45.944;12.480;2022-07-22T05:24:42;9.65;;;5.63;;
40997;SDS011;26740;45.944;12.480;2022-07-22T05:27:08;10.45;;;5.20;;
40997;SDS011;26740;45.944;12.480;2022-07-22T05:29:34;12.43;;;5.03;;
40997;SDS011;26740;45.944;12.480;2022-07-22T05:31:59;9.85;;;4.45;;
40997;SDS011;26740;45.944;12.480;2022-07-22T05:34:25;12.38;;;5.53;;
40997;SDS011;26740;45.944;12.480;2022-07-22T05:36:51;11.43;;;5.10;;
40997;SDS011;26740;45.944;12.480;2022-07-22T05:39:17;8.25;;;4.78;;
40997;SDS011;26740;45.944;12.480;2022-07-22T05:41:43;5.88;;;4.20;;
40997;SDS011;26740;45.944;12.480;2022-07-22T05:44:09;8.40;;;4.50;;
40997;SDS011;26740;45.944;12.480;2022-07-22T05:46:34;15.27;;;5.35;;
40997;SDS011;26740;45.944;12.480;2022-07-22T05:49:00;5.43;;;4.43;;
40997;SDS011;26740;45.944;12.480;2022-07-22T05:51:25;13.75;;;4.93;;
40997;SDS011;26740;45.944;12.480;2022-07-22T05:53:51;8.88;;;4.50;;
40997;SDS011;26740;45.944;12.480;2022-07-22T05:56:17;10.90;;;4.97;;
40997;SDS011;26740;45.944;12.480;2022-07-22T05:58:42;10.70;;;5.22;;
40997;SDS011;26740;45.944;12.480;2022-07-22T06:01:09;9.65;;;5.13;;
40997;SDS011;26740;45.944;12.480;2022-07-22T06:03:35;14.30;;;5.18;;
40997;SDS011;26740;45.944;12.480;2022-07-22T06:06:01;12.13;;;4.85;;
40997;SDS011;26740;45.944;12.480;2022-07-22T06:08:30;15.05;;;4.25;;
40997;SDS011;26740;45.944;12.480;2022-07-22T06:10:56;19.52;;;5.28;;
40997;SDS011;26740;45.944;12.480;2022-07-22T06:13:24;8.73;;;4.95;;
40997;SDS011;26740;45.944;12.480;2022-07-22T06:15:50;15.52;;;5.20;;
40997;SDS011;26740;45.944;12.480;2022-07-22T06:18:16;11.43;;;4.57;;
40997;SDS011;26740;45.944;12.480;2022-07-22T06:20:42;10.55;;;4.90;;
40997;SDS011;26740;45.944;12.480;2022-07-22T06:23:07;11.30;;;5.15;;
40997;SDS011;26740;45.944;12.480;2022-07-22T06:25:33;9.80;;;5.57;;
40997;SDS011;26740;45.944;12.480;2022-07-22T06:27:59;19.75;;;6.70;;
40997;SDS011;26740;45.944;12.480;2022-07-22T06:30:24;12.25;;;6.97;;
40997;SDS011;26740;45.944;12.480;2022-07-22T06:32:51;16.42;;;6.93;;
40997;SDS011;26740;45.944;12.480;2022-07-22T06:35:17;13.35;;;7.45;;
40997;SDS011;26740;45.944;12.480;2022-07-22T06:37:43;11.23;;;7.25;;
40997;SDS011;26740;45.944;12.480;2022-07-22T06:40:09;12.60;;;7.72;;
40997;SDS011;26740;45.944;12.480;2022-07-22T06:42:35;9.55;;;7.95;;
40997;SDS011;26740;45.944;12.480;2022-07-22T06:45:01;21.88;;;8.05;;
40997;SDS011;26740;45.944;12.480;2022-07-22T06:47:28;13.82;;;8.10;;
40997;SDS011;26740;45.944;12.480;2022-07-22T06:49:54;12.63;;;7.53;;
40997;SDS011;26740;45.944;12.480;2022-07-22T06:52:20;21.65;;;8.00;;
40997;SDS011;26740;45.944;12.480;2022-07-22T06:54:45;13.40;;;6.82;;
40997;SDS011;26740;45.944;12.480;2022-07-22T06:57:11;13.07;;;6.70;;
40997;SDS011;26740;45.944;12.480;2022-07-22T06:59:36;11.63;;;6.60;;
40997;SDS011;26740;45.944;12.480;2022-07-22T07:02:02;12.32;;;7.05;;
40997;SDS011;26740;45.944;12.480;2022-07-22T07:04:28;13.32;;;7.93;;
40997;SDS011;26740;45.944;12.480;2022-07-22T07:06:54;9.82;;;6.60;;
40997;SDS011;26740;45.944;12.480;2022-07-22T07:09:20;9.93;;;6.07;;
40997;SDS011;26740;45.944;12.480;2022-07-22T07:11:46;12.75;;;7.30;;
40997;SDS011;26740;45.944;12.480;2022-07-22T07:14:11;11.75;;;6.15;;
40997;SDS011;26740;45.944;12.480;2022-07-22T07:16:37;10.70;;;5.68;;
40997;SDS011;26740;45.944;12.480;2022-07-22T07:19:03;11.38;;;5.95;;
40997;SDS011;26740;45.944;12.480;2022-07-22T07:21:29;13.18;;;5.80;;
40997;SDS011;26740;45.944;12.480;2022-07-22T07:23:55;15.20;;;5.78;;
40997;SDS011;26740;45.944;12.480;2022-07-22T07:26:21;13.77;;;6.15;;
40997;SDS011;26740;45.944;12.480;2022-07-22T07:28:46;10.45;;;6.32;;
40997;SDS011;26740;45.944;12.480;2022-07-22T07:31:12;17.42;;;5.85;;
40997;SDS011;26740;45.944;12.480;2022-07-22T07:33:38;10.25;;;5.82;;
40997;SDS011;26740;45.944;12.480;2022-07-22T07:36:03;13.18;;;5.90;;
40997;SDS011;26740;45.944;12.480;2022-07-22T07:38:29;9.23;;;5.88;;
40997;SDS011;26740;45.944;12.480;2022-07-22T07:40:55;8.15;;;4.70;;
40997;SDS011;26740;45.944;12.480;2022-07-22T07:43:21;10.82;;;6.07;;
40997;SDS011;26740;45.944;12.480;2022-07-22T07:45:46;8.50;;;5.28;;
40997;SDS011;26740;45.944;12.480;2022-07-22T07:48:12;9.77;;;5.10;;
40997;SDS011;26740;45.944;12.480;2022-07-22T07:50:38;7.40;;;4.88;;
40997;SDS011;26740;45.944;12.480;2022-07-22T07:53:03;12.75;;;4.85;;
40997;SDS011;26740;45.944;12.480;2022-07-22T07:55:29;16.20;;;5.15;;
40997;SDS011;26740;45.944;12.480;2022-07-22T07:57:55;12.43;;;5.32;;
40997;SDS011;26740;45.944;12.480;2022-07-22T08:00:21;20.95;;;5.47;;
40997;SDS011;26740;45.944;12.480;2022-07-22T08:02:49;10.88;;;5.20;;
40997;SDS011;26740;45.944;12.480;2022-07-22T08:05:15;10.32;;;5.00;;
40997;SDS011;26740;45.944;12.480;2022-07-22T08:07:41;14.55;;;5.47;;
40997;SDS011;26740;45.944;12.480;2022-07-22T08:10:07;8.75;;;4.82;;
40997;SDS011;26740;45.944;12.480;2022-07-22T08:12:33;11.45;;;5.25;;
40997;SDS011;26740;45.944;12.480;2022-07-22T08:14:59;10.65;;;5.60;;
40997;SDS011;26740;45.944;12.480;2022-07-22T08:17:25;13.90;;;5.43;;
40997;SDS011;26740;45.944;12.480;2022-07-22T08:19:50;12.05;;;5.20;;
40997;SDS011;26740;45.944;12.480;2022-07-22T08:22:16;10.40;;;5.70;;
40997;SDS011;26740;45.944;12.480;2022-07-22T08:24:42;5.47;;;4.97;;
40997;SDS011;26740;45.944;12.480;2022-07-22T08:27:07;11.20;;;4.90;;
40997;SDS011;26740;45.944;12.480;2022-07-22T08:29:33;7.13;;;4.60;;
40997;SDS011;26740;45.944;12.480;2022-07-22T08:31:59;9.52;;;5.40;;
40997;SDS011;26740;45.944;12.480;2022-07-22T08:34:24;7.97;;;5.60;;
40997;SDS011;26740;45.944;12.480;2022-07-22T08:36:50;9.15;;;6.45;;
40997;SDS011;26740;45.944;12.480;2022-07-22T08:39:16;11.05;;;5.47;;
40997;SDS011;26740;45.944;12.480;2022-07-22T08:41:42;10.55;;;5.65;;
40997;SDS011;26740;45.944;12.480;2022-07-22T08:44:10;7.75;;;5.47;;
40997;SDS011;26740;45.944;12.480;2022-07-22T08:46:36;9.50;;;6.00;;
40997;SDS011;26740;45.944;12.480;2022-07-22T08:49:02;7.25;;;5.65;;
40997;SDS011;26740;45.944;12.480;2022-07-22T08:51:28;9.18;;;4.93;;
40997;SDS011;26740;45.944;12.480;2022-07-22T08:53:54;8.50;;;5.88;;
40997;SDS011;26740;45.944;12.480;2022-07-22T08:56:20;7.85;;;5.50;;
40997;SDS011;26740;45.944;12.480;2022-07-22T08:58:46;9.45;;;5.60;;
40997;SDS011;26740;45.944;12.480;2022-07-22T09:01:13;9.00;;;5.65;;
40997;SDS011;26740;45.944;12.480;2022-07-22T09:03:51;14.07;;;5.38;;
40997;SDS011;26740;45.944;12.480;2022-07-22T09:06:21;7.53;;;5.90;;
40997;SDS011;26740;45.944;12.480;2022-07-22T09:08:56;7.93;;;6.10;;
40997;SDS011;26740;45.944;12.480;2022-07-22T09:11:29;7.78;;;6.05;;
40997;SDS011;26740;45.944;12.480;2022-07-22T09:13:57;12.25;;;6.50;;
40997;SDS011;26740;45.944;12.480;2022-07-22T09:16:45;6.93;;;5.80;;
40997;SDS011;26740;45.944;12.480;2022-07-22T09:19:12;9.30;;;5.97;;
40997;SDS011;26740;45.944;12.480;2022-07-22T09:21:43;7.28;;;6.03;;
40997;SDS011;26740;45.944;12.480;2022-07-22T09:24:32;6.70;;;6.07;;
40997;SDS011;26740;45.944;12.480;2022-07-22T09:27:00;8.70;;;6.00;;
40997;SDS011;26740;45.944;12.480;2022-07-22T09:29:26;10.88;;;5.80;;
40997;SDS011;26740;45.944;12.480;2022-07-22T09:31:52;9.63;;;6.07;;
40997;SDS011;26740;45.944;12.480;2022-07-22T09:34:35;11.10;;;6.03;;
40997;SDS011;26740;45.944;12.480;2022-07-22T09:37:01;7.82;;;5.90;;
40997;SDS011;26740;45.944;12.480;2022-07-22T09:39:31;10.20;;;6.30;;
40997;SDS011;26740;45.944;12.480;2022-07-22T09:41:58;8.23;;;5.90;;
40997;SDS011;26740;45.944;12.480;2022-07-22T09:44:25;6.70;;;6.00;;
40997;SDS011;26740;45.944;12.480;2022-07-22T09:46:51;10.75;;;6.07;;
40997;SDS011;26740;45.944;12.480;2022-07-22T09:49:30;8.02;;;6.25;;
40997;SDS011;26740;45.944;12.480;2022-07-22T09:52:01;11.75;;;5.68;;
40997;SDS011;26740;45.944;12.480;2022-07-22T09:54:28;12.60;;;6.03;;
40997;SDS011;26740;45.944;12.480;2022-07-22T09:56:55;9.30;;;5.93;;
40997;SDS011;26740;45.944;12.480;2022-07-22T09:59:21;10.43;;;5.97;;
40997;SDS011;26740;45.944;12.480;2022-07-22T10:01:47;11.15;;;6.45;;
40997;SDS011;26740;45.944;12.480;2022-07-22T10:04:19;11.52;;;5.93;;
40997;SDS011;26740;45.944;12.480;2022-07-22T10:06:47;11.32;;;5.10;;
40997;SDS011;26740;45.944;12.480;2022-07-22T10:09:14;12.85;;;5.55;;
40997;SDS011;26740;45.944;12.480;2022-07-22T10:11:42;21.58;;;6.32;;
40997;SDS011;26740;45.944;12.480;2022-07-22T10:14:13;12.05;;;5.78;;
40997;SDS011;26740;45.944;12.480;2022-07-22T10:16:42;14.93;;;4.72;;
40997;SDS011;26740;45.944;12.480;2022-07-22T10:19:09;10.77;;;4.95;;
40997;SDS011;26740;45.944;12.480;2022-07-22T10:21:35;9.57;;;5.18;;
40997;SDS011;26740;45.944;12.480;2022-07-22T10:24:20;13.55;;;6.32;;
40997;SDS011;26740;45.944;12.480;2022-07-22T10:26:56;6.78;;;5.28;;
40997;SDS011;26740;45.944;12.480;2022-07-22T10:29:24;8.93;;;5.40;;
40997;SDS011;26740;45.944;12.480;2022-07-22T10:34:40;11.68;;;4.68;;
40997;SDS011;26740;45.944;12.480;2022-07-22T10:37:35;7.05;;;5.45;;
40997;SDS011;26740;45.944;12.480;2022-07-22T10:45:29;5.90;;;5.10;;
40997;SDS011;26740;45.944;12.480;2022-07-22T10:47:58;12.35;;;5.28;;
40997;SDS011;26740;45.944;12.480;2022-07-22T10:53:23;6.40;;;4.53;;
40997;SDS011;26740;45.944;12.480;2022-07-22T10:56:06;5.60;;;4.18;;
40997;SDS011;26740;45.944;12.480;2022-07-22T10:58:41;9.70;;;5.03;;
40997;SDS011;26740;45.944;12.480;2022-07-22T11:01:09;10.45;;;4.50;;
40997;SDS011;26740;45.944;12.480;2022-07-22T11:03:37;12.30;;;4.67;;
40997;SDS011;26740;45.944;12.480;2022-07-22T11:06:13;11.15;;;5.07;;
40997;SDS011;26740;45.944;12.480;2022-07-22T11:08:59;4.68;;;4.28;;
40997;SDS011;26740;45.944;12.480;2022-07-22T11:11:34;7.70;;;4.70;;
40997;SDS011;26740;45.944;12.480;2022-07-22T11:14:27;10.82;;;4.22;;
40997;SDS011;26740;45.944;12.480;2022-07-22T11:16:59;8.38;;;4.35;;
40997;SDS011;26740;45.944;12.480;2022-07-22T11:19:33;8.38;;;5.13;;
40997;SDS011;26740;45.944;12.480;2022-07-22T11:24:30;5.82;;;4.05;;
40997;SDS011;26740;45.944;12.480;2022-07-22T11:26:57;7.20;;;4.00;;
40997;SDS011;26740;45.944;12.480;2022-07-22T11:31:52;4.65;;;3.63;;
40997;SDS011;26740;45.944;12.480;2022-07-22T11:34:19;3.85;;;3.17;;
40997;SDS011;26740;45.944;12.480;2022-07-22T11:36:48;7.20;;;3.65;;
40997;SDS011;26740;45.944;12.480;2022-07-22T11:39:18;6.55;;;3.60;;
40997;SDS011;26740;45.944;12.480;2022-07-22T11:41:49;7.95;;;3.72;;
40997;SDS011;26740;45.944;12.480;2022-07-22T11:44:17;8.98;;;4.00;;
40997;SDS011;26740;45.944;12.480;2022-07-22T11:46:48;7.07;;;4.32;;
40997;SDS011;26740;45.944;12.480;2022-07-22T11:49:17;9.35;;;4.88;;
40997;SDS011;26740;45.944;12.480;2022-07-22T11:51:45;13.07;;;4.40;;
40997;SDS011;26740;45.944;12.480;2022-07-22T11:54:12;8.52;;;4.57;;
40997;SDS011;26740;45.944;12.480;2022-07-22T11:56:38;4.78;;;3.88;;
40997;SDS011;26740;45.944;12.480;2022-07-22T11:59:05;7.47;;;4.47;;
40997;SDS011;26740;45.944;12.480;2022-07-22T12:01:34;8.25;;;4.25;;
40997;SDS011;26740;45.944;12.480;2022-07-22T12:04:05;5.85;;;3.95;;
40997;SDS011;26740;45.944;12.480;2022-07-22T12:06:45;6.82;;;4.47;;
40997;SDS011;26740;45.944;12.480;2022-07-22T12:09:12;10.13;;;3.88;;
40997;SDS011;26740;45.944;12.480;2022-07-22T12:11:42;6.68;;;3.88;;
40997;SDS011;26740;45.944;12.480;2022-07-22T12:14:11;4.65;;;4.25;;
40997;SDS011;26740;45.944;12.480;2022-07-22T12:16:39;8.97;;;3.87;;
40997;SDS011;26740;45.944;12.480;2022-07-22T12:21:37;5.10;;;4.30;;
40997;SDS011;26740;45.944;12.480;2022-07-22T12:24:17;7.90;;;4.47;;
40997;SDS011;26740;45.944;12.480;2022-07-22T12:26:55;8.95;;;4.68;;
40997;SDS011;26740;45.944;12.480;2022-07-22T12:29:24;4.15;;;3.80;;
40997;SDS011;26740;45.944;12.480;2022-07-22T12:31:51;8.45;;;4.53;;
40997;SDS011;26740;45.944;12.480;2022-07-22T12:36:59;4.90;;;4.30;;
40997;SDS011;26740;45.944;12.480;2022-07-22T12:39:28;5.97;;;4.70;;
40997;SDS011;26740;45.944;12.480;2022-07-22T12:41:54;6.63;;;4.30;;
40997;SDS011;26740;45.944;12.480;2022-07-22T12:44:22;11.27;;;4.75;;
40997;SDS011;26740;45.944;12.480;2022-07-22T12:46:55;5.47;;;4.10;;
40997;SDS011;26740;45.944;12.480;2022-07-22T12:49:23;4.80;;;4.40;;
40997;SDS011;26740;45.944;12.480;2022-07-22T12:52:10;11.43;;;4.25;;
40997;SDS011;26740;45.944;12.480;2022-07-22T12:54:38;7.85;;;4.60;;
40997;SDS011;26740;45.944;12.480;2022-07-22T12:57:07;4.70;;;4.30;;
40997;SDS011;26740;45.944;12.480;2022-07-22T12:59:34;7.53;;;3.95;;
40997;SDS011;26740;45.944;12.480;2022-07-22T13:02:01;7.82;;;3.78;;
40997;SDS011;26740;45.944;12.480;2022-07-22T13:04:28;5.43;;;3.25;;
40997;SDS011;26740;45.944;12.480;2022-07-22T13:06:55;7.15;;;4.38;;
40997;SDS011;26740;45.944;12.480;2022-07-22T13:09:21;7.20;;;3.85;;
40997;SDS011;26740;45.944;12.480;2022-07-22T13:11:46;3.55;;;3.00;;
40997;SDS011;26740;45.944;12.480;2022-07-22T13:14:12;3.55;;;3.25;;
40997;SDS011;26740;45.944;12.480;2022-07-22T13:16:40;6.40;;;3.15;;
40997;SDS011;26740;45.944;12.480;2022-07-22T13:19:05;5.05;;;3.35;;
40997;SDS011;26740;45.944;12.480;2022-07-22T13:21:31;3.55;;;3.13;;
40997;SDS011;26740;45.944;12.480;2022-07-22T13:23:57;3.40;;;3.10;;
40997;SDS011;26740;45.944;12.480;2022-07-22T13:26:22;3.67;;;3.33;;
40997;SDS011;26740;45.944;12.480;2022-07-22T13:28:50;5.10;;;4.50;;
40997;SDS011;26740;45.944;12.480;2022-07-22T13:31:15;7.65;;;3.85;;
40997;SDS011;26740;45.944;12.480;2022-07-22T13:33:41;6.25;;;4.07;;
40997;SDS011;26740;45.944;12.480;2022-07-22T13:36:07;7.25;;;3.78;;
40997;SDS011;26740;45.944;12.480;2022-07-22T13:38:33;7.05;;;4.60;;
40997;SDS011;26740;45.944;12.480;2022-07-22T13:40:59;8.65;;;4.28;;
40997;SDS011;26740;45.944;12.480;2022-07-22T13:43:24;4.82;;;4.32;;
40997;SDS011;26740;45.944;12.480;2022-07-22T13:45:51;4.57;;;3.97;;
40997;SDS011;26740;45.944;12.480;2022-07-22T13:48:18;5.70;;;4.38;;
40997;SDS011;26740;45.944;12.480;2022-07-22T13:50:45;6.28;;;5.40;;
40997;SDS011;26740;45.944;12.480;2022-07-22T13:53:12;4.80;;;4.40;;
40997;SDS011;26740;45.944;12.480;2022-07-22T13:55:38;7.40;;;4.90;;
40997;SDS011;26740;45.944;12.480;2022-07-22T13:58:04;9.25;;;4.20;;
40997;SDS011;26740;45.944;12.480;2022-07-22T14:00:31;7.88;;;4.03;;
40997;SDS011;26740;45.944;12.480;2022-07-22T14:02:58;4.30;;;3.90;;
40997;SDS011;26740;45.944;12.480;2022-07-22T14:05:23;4.75;;;3.63;;
40997;SDS011;26740;45.944;12.480;2022-07-22T14:07:49;4.70;;;3.88;;
40997;SDS011;26740;45.944;12.480;2022-07-22T14:10:15;6.75;;;3.65;;
40997;SDS011;26740;45.944;12.480;2022-07-22T14:12:41;4.28;;;3.28;;
40997;SDS011;26740;45.944;12.480;2022-07-22T14:15:08;5.38;;;3.85;;
40997;SDS011;26740;45.944;12.480;2022-07-22T14:17:34;5.75;;;3.38;;
40997;SDS011;26740;45.944;12.480;2022-07-22T14:20:00;5.22;;;2.80;;
40997;SDS011;26740;45.944;12.480;2022-07-22T14:22:28;2.92;;;2.72;;
40997;SDS011;26740;45.944;12.480;2022-07-22T14:24:55;4.80;;;3.25;;
40997;SDS011;26740;45.944;12.480;2022-07-22T14:27:21;5.80;;;3.50;;
40997;SDS011;26740;45.944;12.480;2022-07-22T14:29:47;3.90;;;3.60;;
40997;SDS011;26740;45.944;12.480;2022-07-22T14:32:13;7.35;;;4.30;;
40997;SDS011;26740;45.944;12.480;2022-07-22T14:34:39;6.45;;;3.78;;
40997;SDS011;26740;45.944;12.480;2022-07-22T14:37:04;3.90;;;3.50;;
40997;SDS011;26740;45.944;12.480;2022-07-22T14:39:30;5.00;;;3.45;;
40997;SDS011;26740;45.944;12.480;2022-07-22T14:41:56;29.20;;;5.47;;
40997;SDS011;26740;45.944;12.480;2022-07-22T14:44:21;11.90;;;4.13;;
40997;SDS011;26740;45.944;12.480;2022-07-22T14:46:47;6.88;;;4.20;;
40997;SDS011;26740;45.944;12.480;2022-07-22T14:49:12;4.45;;;4.05;;